Khorramabad, Iran
Current Conditions -  °F | °C
As of 6:00 PM on Friday 19 Dec 2014 (Local Time) from OICC Reporting Station
Broken Clouds Broken Clouds  
Wind Chill:   Ceiling: 9000
Heat Index:   Visibility: 6mi
Dew Point: -2°   Wind: 7mph
Humidity: 46%   Direction: 110°ESE
Pressure: 30.18"   Gusts: NA
Location:  33.47°N, 48.35°E
Report Text: OICC 191500Z 11006KT 9999 FEW045 BKN090 09/M02 Q1022 A3021 NOSIG
Loading
Personal Weather Stations






























Interactive Weather Map New forecast layout! Learn more

10-Day Weather Forecast

Advertisements
Track Severe Weather on mobile